sensor_id;sensor_type;location;lat;lon;timestamp;P1;durP1;ratioP1;P2;durP2;ratioP2
16593;SDS011;8410;52.532;13.336;2023-10-08T00:00:45;4.00;;;1.37;;
16593;SDS011;8410;52.532;13.336;2023-10-08T00:03:16;3.80;;;1.67;;
16593;SDS011;8410;52.532;13.336;2023-10-08T00:05:44;4.37;;;2.00;;
16593;SDS011;8410;52.532;13.336;2023-10-08T00:08:12;3.87;;;1.33;;
16593;SDS011;8410;52.532;13.336;2023-10-08T00:10:43;4.33;;;1.50;;
16593;SDS011;8410;52.532;13.336;2023-10-08T00:13:13;3.20;;;1.60;;
16593;SDS011;8410;52.532;13.336;2023-10-08T00:15:42;4.37;;;1.93;;
16593;SDS011;8410;52.532;13.336;2023-10-08T00:18:18;5.60;;;3.23;;
16593;SDS011;8410;52.532;13.336;2023-10-08T00:20:46;6.10;;;1.93;;
16593;SDS011;8410;52.532;13.336;2023-10-08T00:23:21;3.80;;;1.30;;
16593;SDS011;8410;52.532;13.336;2023-10-08T00:25:52;4.57;;;1.83;;
16593;SDS011;8410;52.532;13.336;2023-10-08T00:28:22;4.37;;;2.23;;
16593;SDS011;8410;52.532;13.336;2023-10-08T00:30:50;6.07;;;1.90;;
16593;SDS011;8410;52.532;13.336;2023-10-08T00:33:20;3.23;;;1.80;;
16593;SDS011;8410;52.532;13.336;2023-10-08T00:35:48;3.90;;;1.80;;
16593;SDS011;8410;52.532;13.336;2023-10-08T00:38:16;3.57;;;1.80;;
16593;SDS011;8410;52.532;13.336;2023-10-08T00:40:47;6.53;;;1.83;;
16593;SDS011;8410;52.532;13.336;2023-10-08T00:43:32;4.20;;;1.60;;
16593;SDS011;8410;52.532;13.336;2023-10-08T00:46:01;6.00;;;1.50;;
16593;SDS011;8410;52.532;13.336;2023-10-08T00:48:28;7.60;;;1.70;;
16593;SDS011;8410;52.532;13.336;2023-10-08T00:51:01;5.03;;;1.70;;
16593;SDS011;8410;52.532;13.336;2023-10-08T00:53:43;5.03;;;1.97;;
16593;SDS011;8410;52.532;13.336;2023-10-08T00:56:11;2.97;;;1.60;;
16593;SDS011;8410;52.532;13.336;2023-10-08T00:58:42;5.30;;;1.90;;
16593;SDS011;8410;52.532;13.336;2023-10-08T01:01:12;4.97;;;1.67;;
16593;SDS011;8410;52.532;13.336;2023-10-08T01:03:43;6.63;;;1.83;;
16593;SDS011;8410;52.532;13.336;2023-10-08T01:06:11;5.63;;;1.60;;
16593;SDS011;8410;52.532;13.336;2023-10-08T01:08:41;6.50;;;1.80;;
16593;SDS011;8410;52.532;13.336;2023-10-08T01:11:19;6.30;;;1.97;;
16593;SDS011;8410;52.532;13.336;2023-10-08T01:13:54;4.80;;;1.90;;
16593;SDS011;8410;52.532;13.336;2023-10-08T01:16:21;4.70;;;1.90;;
16593;SDS011;8410;52.532;13.336;2023-10-08T01:18:49;8.50;;;2.53;;
16593;SDS011;8410;52.532;13.336;2023-10-08T01:21:20;5.63;;;1.87;;
16593;SDS011;8410;52.532;13.336;2023-10-08T01:24:02;6.63;;;1.97;;
16593;SDS011;8410;52.532;13.336;2023-10-08T01:26:32;3.80;;;1.80;;
16593;SDS011;8410;52.532;13.336;2023-10-08T01:29:00;4.77;;;1.73;;
16593;SDS011;8410;52.532;13.336;2023-10-08T01:31:33;4.63;;;1.90;;
16593;SDS011;8410;52.532;13.336;2023-10-08T01:34:00;6.00;;;2.10;;
16593;SDS011;8410;52.532;13.336;2023-10-08T01:36:30;6.30;;;2.27;;
16593;SDS011;8410;52.532;13.336;2023-10-08T01:38:58;6.33;;;2.30;;
16593;SDS011;8410;52.532;13.336;2023-10-08T01:41:29;4.73;;;1.93;;
16593;SDS011;8410;52.532;13.336;2023-10-08T01:43:57;6.33;;;2.40;;
16593;SDS011;8410;52.532;13.336;2023-10-08T01:46:25;6.80;;;2.00;;
16593;SDS011;8410;52.532;13.336;2023-10-08T01:48:54;5.10;;;1.97;;
16593;SDS011;8410;52.532;13.336;2023-10-08T01:51:30;6.67;;;2.40;;
16593;SDS011;8410;52.532;13.336;2023-10-08T01:54:05;4.63;;;2.00;;
16593;SDS011;8410;52.532;13.336;2023-10-08T01:56:39;11.60;;;2.37;;
16593;SDS011;8410;52.532;13.336;2023-10-08T01:59:08;6.43;;;2.40;;
16593;SDS011;8410;52.532;13.336;2023-10-08T02:01:38;6.33;;;2.57;;
16593;SDS011;8410;52.532;13.336;2023-10-08T02:04:06;4.80;;;2.17;;
16593;SDS011;8410;52.532;13.336;2023-10-08T02:06:34;6.47;;;2.27;;
16593;SDS011;8410;52.532;13.336;2023-10-08T02:09:02;6.90;;;3.00;;
16593;SDS011;8410;52.532;13.336;2023-10-08T02:11:45;10.53;;;3.17;;
16593;SDS011;8410;52.532;13.336;2023-10-08T02:14:16;6.43;;;3.33;;
16593;SDS011;8410;52.532;13.336;2023-10-08T02:16:44;7.53;;;3.20;;
16593;SDS011;8410;52.532;13.336;2023-10-08T02:19:12;7.83;;;3.10;;
16593;SDS011;8410;52.532;13.336;2023-10-08T02:21:44;8.23;;;3.37;;
16593;SDS011;8410;52.532;13.336;2023-10-08T02:24:13;6.20;;;3.00;;
16593;SDS011;8410;52.532;13.336;2023-10-08T02:26:40;8.80;;;3.90;;
16593;SDS011;8410;52.532;13.336;2023-10-08T02:29:11;5.53;;;3.30;;
16593;SDS011;8410;52.532;13.336;2023-10-08T02:31:39;5.63;;;2.90;;
16593;SDS011;8410;52.532;13.336;2023-10-08T02:34:08;7.13;;;3.33;;
16593;SDS011;8410;52.532;13.336;2023-10-08T02:36:36;10.50;;;3.00;;
16593;SDS011;8410;52.532;13.336;2023-10-08T02:39:04;7.17;;;3.40;;
16593;SDS011;8410;52.532;13.336;2023-10-08T02:41:39;8.67;;;3.60;;
16593;SDS011;8410;52.532;13.336;2023-10-08T02:44:08;6.13;;;3.20;;
16593;SDS011;8410;52.532;13.336;2023-10-08T02:46:39;9.67;;;3.73;;
16593;SDS011;8410;52.532;13.336;2023-10-08T02:49:08;5.53;;;3.13;;
16593;SDS011;8410;52.532;13.336;2023-10-08T02:51:39;12.13;;;4.00;;
16593;SDS011;8410;52.532;13.336;2023-10-08T02:54:07;5.40;;;3.20;;
16593;SDS011;8410;52.532;13.336;2023-10-08T02:56:43;6.37;;;3.20;;
16593;SDS011;8410;52.532;13.336;2023-10-08T02:59:12;8.93;;;3.90;;
16593;SDS011;8410;52.532;13.336;2023-10-08T03:01:41;7.73;;;3.63;;
16593;SDS011;8410;52.532;13.336;2023-10-08T03:04:09;7.03;;;3.70;;
16593;SDS011;8410;52.532;13.336;2023-10-08T03:06:44;8.50;;;3.57;;
16593;SDS011;8410;52.532;13.336;2023-10-08T03:09:16;11.43;;;4.23;;
16593;SDS011;8410;52.532;13.336;2023-10-08T03:11:47;7.77;;;3.60;;
16593;SDS011;8410;52.532;13.336;2023-10-08T03:14:15;10.73;;;3.90;;
16593;SDS011;8410;52.532;13.336;2023-10-08T03:16:50;10.73;;;3.50;;
16593;SDS011;8410;52.532;13.336;2023-10-08T03:19:21;9.53;;;3.60;;
16593;SDS011;8410;52.532;13.336;2023-10-08T03:21:49;12.93;;;4.13;;
16593;SDS011;8410;52.532;13.336;2023-10-08T03:24:18;7.27;;;3.47;;
16593;SDS011;8410;52.532;13.336;2023-10-08T03:27:04;7.93;;;3.57;;
16593;SDS011;8410;52.532;13.336;2023-10-08T03:29:46;10.67;;;3.60;;
16593;SDS011;8410;52.532;13.336;2023-10-08T03:32:16;8.33;;;3.80;;
16593;SDS011;8410;52.532;13.336;2023-10-08T03:34:44;6.93;;;3.27;;
16593;SDS011;8410;52.532;13.336;2023-10-08T03:37:13;9.03;;;3.60;;
16593;SDS011;8410;52.532;13.336;2023-10-08T03:39:46;8.20;;;3.63;;
16593;SDS011;8410;52.532;13.336;2023-10-08T03:42:27;8.20;;;3.80;;
16593;SDS011;8410;52.532;13.336;2023-10-08T03:45:01;6.40;;;3.27;;
16593;SDS011;8410;52.532;13.336;2023-10-08T03:47:38;8.33;;;3.27;;
16593;SDS011;8410;52.532;13.336;2023-10-08T03:50:06;10.23;;;3.43;;
16593;SDS011;8410;52.532;13.336;2023-10-08T03:52:35;11.77;;;3.97;;
16593;SDS011;8410;52.532;13.336;2023-10-08T03:55:04;7.13;;;3.67;;
16593;SDS011;8410;52.532;13.336;2023-10-08T03:57:48;8.10;;;3.47;;
16593;SDS011;8410;52.532;13.336;2023-10-08T04:00:23;9.63;;;3.47;;
16593;SDS011;8410;52.532;13.336;2023-10-08T04:02:59;11.73;;;4.27;;
16593;SDS011;8410;52.532;13.336;2023-10-08T04:05:35;10.10;;;4.47;;
16593;SDS011;8410;52.532;13.336;2023-10-08T04:08:10;10.67;;;4.10;;
16593;SDS011;8410;52.532;13.336;2023-10-08T04:10:52;10.00;;;4.07;;
16593;SDS011;8410;52.532;13.336;2023-10-08T04:13:36;10.40;;;4.47;;
16593;SDS011;8410;52.532;13.336;2023-10-08T04:16:11;10.57;;;3.97;;
16593;SDS011;8410;52.532;13.336;2023-10-08T04:18:45;10.07;;;3.90;;
16593;SDS011;8410;52.532;13.336;2023-10-08T04:21:25;8.28;;;3.49;;
16593;SDS011;8410;52.532;13.336;2023-10-08T04:23:54;9.53;;;3.80;;
16593;SDS011;8410;52.532;13.336;2023-10-08T04:26:24;10.07;;;4.00;;
16593;SDS011;8410;52.532;13.336;2023-10-08T04:28:53;9.77;;;3.87;;
16593;SDS011;8410;52.532;13.336;2023-10-08T04:31:24;10.50;;;4.20;;
16593;SDS011;8410;52.532;13.336;2023-10-08T04:33:55;10.50;;;4.17;;
16593;SDS011;8410;52.532;13.336;2023-10-08T04:36:26;8.67;;;3.70;;
16593;SDS011;8410;52.532;13.336;2023-10-08T04:38:54;11.70;;;3.83;;
16593;SDS011;8410;52.532;13.336;2023-10-08T04:41:28;6.57;;;3.20;;
16593;SDS011;8410;52.532;13.336;2023-10-08T04:43:55;11.03;;;3.70;;
16593;SDS011;8410;52.532;13.336;2023-10-08T04:46:23;8.87;;;3.73;;
16593;SDS011;8410;52.532;13.336;2023-10-08T04:49:15;11.67;;;3.63;;
16593;SDS011;8410;52.532;13.336;2023-10-08T04:51:54;7.07;;;3.43;;
16593;SDS011;8410;52.532;13.336;2023-10-08T04:54:25;7.40;;;3.37;;
16593;SDS011;8410;52.532;13.336;2023-10-08T04:56:57;9.10;;;4.07;;
16593;SDS011;8410;52.532;13.336;2023-10-08T04:59:26;8.43;;;3.10;;
16593;SDS011;8410;52.532;13.336;2023-10-08T05:02:00;8.57;;;3.40;;
16593;SDS011;8410;52.532;13.336;2023-10-08T05:04:48;8.37;;;3.63;;
16593;SDS011;8410;52.532;13.336;2023-10-08T05:07:33;10.63;;;3.13;;
16593;SDS011;8410;52.532;13.336;2023-10-08T05:10:18;8.93;;;3.70;;
16593;SDS011;8410;52.532;13.336;2023-10-08T05:13:10;10.53;;;4.57;;
16593;SDS011;8410;52.532;13.336;2023-10-08T05:15:56;9.30;;;3.50;;
16593;SDS011;8410;52.532;13.336;2023-10-08T05:18:49;5.33;;;2.80;;
16593;SDS011;8410;52.532;13.336;2023-10-08T05:22:01;11.60;;;3.30;;
16593;SDS011;8410;52.532;13.336;2023-10-08T05:24:44;10.13;;;3.33;;
16593;SDS011;8410;52.532;13.336;2023-10-08T05:27:32;7.23;;;3.37;;
16593;SDS011;8410;52.532;13.336;2023-10-08T05:30:23;7.20;;;3.90;;
16593;SDS011;8410;52.532;13.336;2023-10-08T05:33:04;6.90;;;3.50;;
16593;SDS011;8410;52.532;13.336;2023-10-08T05:35:53;14.27;;;4.27;;
16593;SDS011;8410;52.532;13.336;2023-10-08T05:38:23;7.37;;;3.47;;
16593;SDS011;8410;52.532;13.336;2023-10-08T05:41:05;6.90;;;3.50;;
16593;SDS011;8410;52.532;13.336;2023-10-08T05:43:39;8.67;;;3.67;;
16593;SDS011;8410;52.532;13.336;2023-10-08T05:46:24;9.53;;;3.67;;
16593;SDS011;8410;52.532;13.336;2023-10-08T05:49:13;10.43;;;3.50;;
16593;SDS011;8410;52.532;13.336;2023-10-08T05:52:00;9.30;;;3.30;;
16593;SDS011;8410;52.532;13.336;2023-10-08T05:54:51;7.43;;;3.53;;
16593;SDS011;8410;52.532;13.336;2023-10-08T05:57:40;9.97;;;3.83;;
16593;SDS011;8410;52.532;13.336;2023-10-08T06:00:13;8.63;;;4.00;;
16593;SDS011;8410;52.532;13.336;2023-10-08T06:02:57;8.67;;;3.33;;
16593;SDS011;8410;52.532;13.336;2023-10-08T06:05:36;9.90;;;3.73;;
16593;SDS011;8410;52.532;13.336;2023-10-08T06:08:13;10.57;;;3.97;;
16593;SDS011;8410;52.532;13.336;2023-10-08T06:10:41;8.43;;;3.60;;
16593;SDS011;8410;52.532;13.336;2023-10-08T06:13:10;7.93;;;3.80;;
16593;SDS011;8410;52.532;13.336;2023-10-08T06:15:43;9.87;;;4.27;;
16593;SDS011;8410;52.532;13.336;2023-10-08T06:18:14;10.97;;;4.10;;
16593;SDS011;8410;52.532;13.336;2023-10-08T06:20:42;6.30;;;3.13;;
16593;SDS011;8410;52.532;13.336;2023-10-08T06:23:10;6.57;;;3.60;;
16593;SDS011;8410;52.532;13.336;2023-10-08T06:25:40;5.33;;;3.13;;
16593;SDS011;8410;52.532;13.336;2023-10-08T06:28:13;8.70;;;4.00;;
16593;SDS011;8410;52.532;13.336;2023-10-08T06:30:45;7.27;;;3.73;;
16593;SDS011;8410;52.532;13.336;2023-10-08T06:33:13;11.23;;;3.80;;
16593;SDS011;8410;52.532;13.336;2023-10-08T06:35:41;6.83;;;3.70;;
16593;SDS011;8410;52.532;13.336;2023-10-08T06:38:11;8.07;;;3.10;;
16593;SDS011;8410;52.532;13.336;2023-10-08T06:40:42;8.90;;;3.27;;
16593;SDS011;8410;52.532;13.336;2023-10-08T06:43:09;8.97;;;3.60;;
16593;SDS011;8410;52.532;13.336;2023-10-08T06:45:48;8.67;;;3.50;;
16593;SDS011;8410;52.532;13.336;2023-10-08T06:48:19;7.00;;;3.50;;
16593;SDS011;8410;52.532;13.336;2023-10-08T06:50:48;8.07;;;3.37;;
16593;SDS011;8410;52.532;13.336;2023-10-08T06:53:16;6.70;;;2.80;;
16593;SDS011;8410;52.532;13.336;2023-10-08T06:55:46;56.27;;;50.30;;
16593;SDS011;8410;52.532;13.336;2023-10-08T06:58:20;47.73;;;42.83;;
16593;SDS011;8410;52.532;13.336;2023-10-08T07:00:49;40.53;;;36.33;;
16593;SDS011;8410;52.532;13.336;2023-10-08T07:03:18;27.57;;;24.87;;
16593;SDS011;8410;52.532;13.336;2023-10-08T07:05:48;19.03;;;17.13;;
16593;SDS011;8410;52.532;13.336;2023-10-08T07:08:25;7.47;;;5.03;;
16593;SDS011;8410;52.532;13.336;2023-10-08T07:10:57;9.97;;;7.30;;
16593;SDS011;8410;52.532;13.336;2023-10-08T07:13:27;11.10;;;9.83;;
16593;SDS011;8410;52.532;13.336;2023-10-08T07:15:56;6.77;;;6.07;;
16593;SDS011;8410;52.532;13.336;2023-10-08T07:18:24;9.77;;;6.53;;
16593;SDS011;8410;52.532;13.336;2023-10-08T07:20:52;7.07;;;3.00;;
16593;SDS011;8410;52.532;13.336;2023-10-08T07:23:21;6.97;;;4.53;;
16593;SDS011;8410;52.532;13.336;2023-10-08T07:25:52;6.87;;;4.50;;
16593;SDS011;8410;52.532;13.336;2023-10-08T07:28:26;7.00;;;4.73;;
16593;SDS011;8410;52.532;13.336;2023-10-08T07:30:53;6.87;;;3.57;;
16593;SDS011;8410;52.532;13.336;2023-10-08T07:33:21;5.50;;;3.83;;
16593;SDS011;8410;52.532;13.336;2023-10-08T07:35:51;5.73;;;3.40;;
16593;SDS011;8410;52.532;13.336;2023-10-08T07:38:27;6.17;;;2.73;;
16593;SDS011;8410;52.532;13.336;2023-10-08T07:40:55;4.03;;;2.60;;
16593;SDS011;8410;52.532;13.336;2023-10-08T07:43:23;4.27;;;2.03;;
16593;SDS011;8410;52.532;13.336;2023-10-08T07:45:52;4.93;;;1.60;;
16593;SDS011;8410;52.532;13.336;2023-10-08T07:48:20;4.80;;;2.00;;
16593;SDS011;8410;52.532;13.336;2023-10-08T07:50:56;4.37;;;1.37;;
16593;SDS011;8410;52.532;13.336;2023-10-08T07:53:24;3.73;;;1.60;;
16593;SDS011;8410;52.532;13.336;2023-10-08T07:56:06;2.93;;;1.90;;
16593;SDS011;8410;52.532;13.336;2023-10-08T07:58:34;3.57;;;1.70;;
16593;SDS011;8410;52.532;13.336;2023-10-08T08:01:05;4.23;;;2.00;;
16593;SDS011;8410;52.532;13.336;2023-10-08T08:03:33;4.67;;;1.97;;
16593;SDS011;8410;52.532;13.336;2023-10-08T08:06:04;6.57;;;1.70;;
16593;SDS011;8410;52.532;13.336;2023-10-08T08:08:33;4.50;;;1.87;;
16593;SDS011;8410;52.532;13.336;2023-10-08T08:11:02;2.53;;;1.60;;
16593;SDS011;8410;52.532;13.336;2023-10-08T08:13:38;3.67;;;1.60;;
16593;SDS011;8410;52.532;13.336;2023-10-08T08:16:10;3.87;;;1.70;;
16593;SDS011;8410;52.532;13.336;2023-10-08T08:18:44;2.27;;;1.37;;
16593;SDS011;8410;52.532;13.336;2023-10-08T08:21:12;2.03;;;1.20;;
16593;SDS011;8410;52.532;13.336;2023-10-08T08:23:42;2.83;;;1.47;;
16593;SDS011;8410;52.532;13.336;2023-10-08T08:26:15;5.00;;;1.60;;
16593;SDS011;8410;52.532;13.336;2023-10-08T08:28:53;2.90;;;1.40;;
16593;SDS011;8410;52.532;13.336;2023-10-08T08:31:24;2.17;;;1.20;;
16593;SDS011;8410;52.532;13.336;2023-10-08T08:33:53;4.13;;;1.47;;
16593;SDS011;8410;52.532;13.336;2023-10-08T08:36:23;5.80;;;3.80;;
16593;SDS011;8410;52.532;13.336;2023-10-08T08:38:51;4.33;;;2.20;;
16593;SDS011;8410;52.532;13.336;2023-10-08T08:41:19;3.67;;;1.23;;
16593;SDS011;8410;52.532;13.336;2023-10-08T08:43:47;3.13;;;1.20;;
16593;SDS011;8410;52.532;13.336;2023-10-08T08:46:15;3.07;;;1.20;;
16593;SDS011;8410;52.532;13.336;2023-10-08T08:48:44;1.30;;;0.97;;
16593;SDS011;8410;52.532;13.336;2023-10-08T08:51:15;2.73;;;1.20;;
16593;SDS011;8410;52.532;13.336;2023-10-08T08:53:42;3.33;;;1.37;;
16593;SDS011;8410;52.532;13.336;2023-10-08T08:56:10;2.13;;;1.37;;
16593;SDS011;8410;52.532;13.336;2023-10-08T08:58:38;2.77;;;1.10;;
16593;SDS011;8410;52.532;13.336;2023-10-08T09:01:07;1.67;;;0.90;;
16593;SDS011;8410;52.532;13.336;2023-10-08T09:03:40;3.67;;;1.37;;
16593;SDS011;8410;52.532;13.336;2023-10-08T09:06:09;2.00;;;1.10;;
16593;SDS011;8410;52.532;13.336;2023-10-08T09:08:37;3.10;;;2.03;;
16593;SDS011;8410;52.532;13.336;2023-10-08T09:11:12;5.77;;;3.60;;
16593;SDS011;8410;52.532;13.336;2023-10-08T09:13:41;2.67;;;0.90;;
16593;SDS011;8410;52.532;13.336;2023-10-08T09:16:11;1.63;;;0.87;;
16593;SDS011;8410;52.532;13.336;2023-10-08T09:18:41;2.03;;;1.10;;
16593;SDS011;8410;52.532;13.336;2023-10-08T09:21:11;3.60;;;1.00;;
16593;SDS011;8410;52.532;13.336;2023-10-08T09:23:40;4.97;;;2.67;;
16593;SDS011;8410;52.532;13.336;2023-10-08T09:26:10;2.83;;;1.00;;
16593;SDS011;8410;52.532;13.336;2023-10-08T09:28:40;1.07;;;0.93;;
16593;SDS011;8410;52.532;13.336;2023-10-08T09:31:13;1.53;;;0.90;;
16593;SDS011;8410;52.532;13.336;2023-10-08T09:33:40;2.17;;;1.00;;
16593;SDS011;8410;52.532;13.336;2023-10-08T09:36:09;2.23;;;1.07;;
16593;SDS011;8410;52.532;13.336;2023-10-08T09:38:44;2.10;;;1.30;;
16593;SDS011;8410;52.532;13.336;2023-10-08T09:41:15;2.57;;;1.03;;
16593;SDS011;8410;52.532;13.336;2023-10-08T09:43:42;2.37;;;1.20;;
16593;SDS011;8410;52.532;13.336;2023-10-08T09:46:13;1.47;;;0.90;;
16593;SDS011;8410;52.532;13.336;2023-10-08T09:48:44;1.77;;;1.00;;
16593;SDS011;8410;52.532;13.336;2023-10-08T09:51:19;1.43;;;1.10;;
16593;SDS011;8410;52.532;13.336;2023-10-08T09:53:50;4.70;;;1.07;;
16593;SDS011;8410;52.532;13.336;2023-10-08T09:56:20;2.20;;;1.03;;
16593;SDS011;8410;52.532;13.336;2023-10-08T09:58:47;3.53;;;1.00;;
16593;SDS011;8410;52.532;13.336;2023-10-08T10:01:17;1.50;;;0.97;;
16593;SDS011;8410;52.532;13.336;2023-10-08T10:03:48;1.63;;;1.00;;
16593;SDS011;8410;52.532;13.336;2023-10-08T10:06:18;2.30;;;1.00;;
16593;SDS011;8410;52.532;13.336;2023-10-08T10:08:47;0.87;;;0.70;;
16593;SDS011;8410;52.532;13.336;2023-10-08T10:11:16;1.53;;;0.70;;
16593;SDS011;8410;52.532;13.336;2023-10-08T10:13:44;11.93;;;1.17;;
16593;SDS011;8410;52.532;13.336;2023-10-08T10:16:17;1.37;;;0.87;;
16593;SDS011;8410;52.532;13.336;2023-10-08T10:18:48;2.70;;;1.03;;
16593;SDS011;8410;52.532;13.336;2023-10-08T10:21:31;1.93;;;1.00;;
16593;SDS011;8410;52.532;13.336;2023-10-08T10:24:00;2.93;;;0.80;;
16593;SDS011;8410;52.532;13.336;2023-10-08T10:26:29;2.30;;;0.80;;
16593;SDS011;8410;52.532;13.336;2023-10-08T10:31:48;2.77;;;1.40;;
16593;SDS011;8410;52.532;13.336;2023-10-08T10:34:20;1.93;;;0.80;;
16593;SDS011;8410;52.532;13.336;2023-10-08T10:36:51;1.90;;;1.13;;
16593;SDS011;8410;52.532;13.336;2023-10-08T10:39:25;1.33;;;0.80;;
16593;SDS011;8410;52.532;13.336;2023-10-08T10:41:54;0.87;;;0.80;;
16593;SDS011;8410;52.532;13.336;2023-10-08T10:44:24;1.20;;;0.80;;
16593;SDS011;8410;52.532;13.336;2023-10-08T10:46:52;2.20;;;1.00;;
16593;SDS011;8410;52.532;13.336;2023-10-08T10:49:40;1.57;;;1.07;;
16593;SDS011;8410;52.532;13.336;2023-10-08T10:52:20;1.70;;;0.87;;
16593;SDS011;8410;52.532;13.336;2023-10-08T10:55:11;1.00;;;0.90;;
16593;SDS011;8410;52.532;13.336;2023-10-08T10:57:47;2.00;;;1.03;;
16593;SDS011;8410;52.532;13.336;2023-10-08T11:00:23;1.83;;;0.97;;
16593;SDS011;8410;52.532;13.336;2023-10-08T11:03:20;1.07;;;0.80;;
16593;SDS011;8410;52.532;13.336;2023-10-08T11:05:52;1.03;;;0.70;;
16593;SDS011;8410;52.532;13.336;2023-10-08T11:08:27;1.90;;;1.10;;
16593;SDS011;8410;52.532;13.336;2023-10-08T11:11:01;2.77;;;1.00;;
16593;SDS011;8410;52.532;13.336;2023-10-08T11:13:32;3.43;;;1.20;;
16593;SDS011;8410;52.532;13.336;2023-10-08T11:16:06;4.53;;;1.10;;
16593;SDS011;8410;52.532;13.336;2023-10-08T11:18:41;1.53;;;0.90;;
16593;SDS011;8410;52.532;13.336;2023-10-08T11:21:10;3.27;;;1.00;;
16593;SDS011;8410;52.532;13.336;2023-10-08T11:23:43;2.57;;;0.93;;
16593;SDS011;8410;52.532;13.336;2023-10-08T11:26:19;2.47;;;0.80;;
16593;SDS011;8410;52.532;13.336;2023-10-08T11:28:47;1.40;;;0.90;;
16593;SDS011;8410;52.532;13.336;2023-10-08T11:31:17;2.37;;;1.07;;
16593;SDS011;8410;52.532;13.336;2023-10-08T11:33:46;1.97;;;1.10;;
16593;SDS011;8410;52.532;13.336;2023-10-08T11:36:20;1.63;;;0.80;;
16593;SDS011;8410;52.532;13.336;2023-10-08T11:38:55;1.77;;;1.10;;
16593;SDS011;8410;52.532;13.336;2023-10-08T11:41:28;1.60;;;0.90;;
16593;SDS011;8410;52.532;13.336;2023-10-08T11:43:56;1.00;;;0.80;;
16593;SDS011;8410;52.532;13.336;2023-10-08T11:46:25;1.63;;;1.00;;
16593;SDS011;8410;52.532;13.336;2023-10-08T11:48:59;1.43;;;1.00;;
16593;SDS011;8410;52.532;13.336;2023-10-08T11:51:31;1.07;;;0.77;;
16593;SDS011;8410;52.532;13.336;2023-10-08T11:54:00;1.10;;;0.87;;
16593;SDS011;8410;52.532;13.336;2023-10-08T11:56:28;2.43;;;1.10;;
16593;SDS011;8410;52.532;13.336;2023-10-08T11:58:56;1.57;;;0.80;;
16593;SDS011;8410;52.532;13.336;2023-10-08T12:01:24;1.13;;;0.80;;
16593;SDS011;8410;52.532;13.336;2023-10-08T12:03:53;0.77;;;0.77;;
16593;SDS011;8410;52.532;13.336;2023-10-08T12:06:26;1.10;;;0.80;;
16593;SDS011;8410;52.532;13.336;2023-10-08T12:08:56;1.23;;;0.87;;
16593;SDS011;8410;52.532;13.336;2023-10-08T12:11:26;1.10;;;0.70;;
16593;SDS011;8410;52.532;13.336;2023-10-08T12:13:58;1.13;;;0.63;;
16593;SDS011;8410;52.532;13.336;2023-10-08T12:16:26;2.00;;;1.00;;
16593;SDS011;8410;52.532;13.336;2023-10-08T12:18:56;1.03;;;0.87;;
16593;SDS011;8410;52.532;13.336;2023-10-08T12:21:25;1.53;;;0.83;;
16593;SDS011;8410;52.532;13.336;2023-10-08T12:23:56;1.30;;;0.83;;
16593;SDS011;8410;52.532;13.336;2023-10-08T12:26:25;0.87;;;0.73;;
16593;SDS011;8410;52.532;13.336;2023-10-08T12:28:53;1.97;;;1.10;;
16593;SDS011;8410;52.532;13.336;2023-10-08T12:31:21;1.20;;;0.70;;
16593;SDS011;8410;52.532;13.336;2023-10-08T12:33:50;1.20;;;0.80;;
16593;SDS011;8410;52.532;13.336;2023-10-08T12:36:20;1.40;;;0.83;;
16593;SDS011;8410;52.532;13.336;2023-10-08T12:38:50;1.80;;;1.10;;
16593;SDS011;8410;52.532;13.336;2023-10-08T12:41:24;1.57;;;0.80;;
16593;SDS011;8410;52.532;13.336;2023-10-08T12:43:54;1.73;;;0.90;;
16593;SDS011;8410;52.532;13.336;2023-10-08T12:46:24;1.10;;;0.70;;
16593;SDS011;8410;52.532;13.336;2023-10-08T12:48:52;2.00;;;1.40;;
16593;SDS011;8410;52.532;13.336;2023-10-08T12:51:23;1.73;;;0.87;;
16593;SDS011;8410;52.532;13.336;2023-10-08T12:53:51;0.90;;;0.60;;
16593;SDS011;8410;52.532;13.336;2023-10-08T12:56:25;1.40;;;0.80;;
16593;SDS011;8410;52.532;13.336;2023-10-08T12:59:03;2.33;;;0.97;;
16593;SDS011;8410;52.532;13.336;2023-10-08T13:01:33;2.20;;;1.60;;
16593;SDS011;8410;52.532;13.336;2023-10-08T13:04:02;1.40;;;0.60;;
16593;SDS011;8410;52.532;13.336;2023-10-08T13:06:33;3.27;;;0.97;;
16593;SDS011;8410;52.532;13.336;2023-10-08T13:09:04;1.57;;;0.80;;
16593;SDS011;8410;52.532;13.336;2023-10-08T13:11:39;2.10;;;0.80;;
16593;SDS011;8410;52.532;13.336;2023-10-08T13:14:08;1.47;;;0.90;;
16593;SDS011;8410;52.532;13.336;2023-10-08T13:16:38;1.10;;;0.80;;
16593;SDS011;8410;52.532;13.336;2023-10-08T13:19:06;1.20;;;0.77;;
16593;SDS011;8410;52.532;13.336;2023-10-08T13:21:35;1.00;;;0.70;;
16593;SDS011;8410;52.532;13.336;2023-10-08T13:24:03;1.70;;;0.80;;
16593;SDS011;8410;52.532;13.336;2023-10-08T13:26:35;2.73;;;1.10;;
16593;SDS011;8410;52.532;13.336;2023-10-08T13:29:05;1.80;;;0.60;;
16593;SDS011;8410;52.532;13.336;2023-10-08T13:31:34;1.53;;;0.60;;
16593;SDS011;8410;52.532;13.336;2023-10-08T13:34:03;3.20;;;0.70;;
16593;SDS011;8410;52.532;13.336;2023-10-08T13:36:35;1.03;;;0.90;;
16593;SDS011;8410;52.532;13.336;2023-10-08T13:39:04;2.53;;;0.90;;
16593;SDS011;8410;52.532;13.336;2023-10-08T13:41:36;1.57;;;0.80;;
16593;SDS011;8410;52.532;13.336;2023-10-08T13:44:05;2.50;;;1.20;;
16593;SDS011;8410;52.532;13.336;2023-10-08T13:46:32;1.37;;;0.90;;
16593;SDS011;8410;52.532;13.336;2023-10-08T13:49:05;1.57;;;1.27;;
16593;SDS011;8410;52.532;13.336;2023-10-08T13:51:34;1.60;;;0.93;;
16593;SDS011;8410;52.532;13.336;2023-10-08T13:54:04;1.27;;;0.73;;
16593;SDS011;8410;52.532;13.336;2023-10-08T13:56:33;1.03;;;0.73;;
16593;SDS011;8410;52.532;13.336;2023-10-08T13:59:04;1.43;;;0.83;;
16593;SDS011;8410;52.532;13.336;2023-10-08T14:01:40;1.47;;;0.90;;
16593;SDS011;8410;52.532;13.336;2023-10-08T14:04:13;0.80;;;0.80;;
16593;SDS011;8410;52.532;13.336;2023-10-08T14:06:46;1.07;;;0.70;;
16593;SDS011;8410;52.532;13.336;2023-10-08T14:09:19;1.90;;;1.43;;
16593;SDS011;8410;52.532;13.336;2023-10-08T14:11:48;1.97;;;1.67;;
16593;SDS011;8410;52.532;13.336;2023-10-08T14:14:19;1.40;;;0.70;;
16593;SDS011;8410;52.532;13.336;2023-10-08T14:16:52;1.20;;;1.10;;
16593;SDS011;8410;52.532;13.336;2023-10-08T14:19:20;1.53;;;0.90;;
16593;SDS011;8410;52.532;13.336;2023-10-08T14:21:54;0.90;;;0.70;;
16593;SDS011;8410;52.532;13.336;2023-10-08T14:24:26;2.00;;;1.00;;
16593;SDS011;8410;52.532;13.336;2023-10-08T14:26:58;0.97;;;0.60;;
16593;SDS011;8410;52.532;13.336;2023-10-08T14:29:29;2.00;;;1.20;;
16593;SDS011;8410;52.532;13.336;2023-10-08T14:32:01;2.17;;;1.10;;
16593;SDS011;8410;52.532;13.336;2023-10-08T14:34:35;1.27;;;0.90;;
16593;SDS011;8410;52.532;13.336;2023-10-08T14:37:20;2.60;;;1.40;;
16593;SDS011;8410;52.532;13.336;2023-10-08T14:40:06;0.93;;;0.70;;
16593;SDS011;8410;52.532;13.336;2023-10-08T14:42:52;3.43;;;1.00;;
16593;SDS011;8410;52.532;13.336;2023-10-08T14:45:25;1.63;;;0.93;;
16593;SDS011;8410;52.532;13.336;2023-10-08T14:47:59;1.73;;;1.10;;
16593;SDS011;8410;52.532;13.336;2023-10-08T14:50:27;0.77;;;0.73;;
16593;SDS011;8410;52.532;13.336;2023-10-08T14:52:59;2.60;;;1.10;;
16593;SDS011;8410;52.532;13.336;2023-10-08T14:55:28;1.93;;;0.90;;
16593;SDS011;8410;52.532;13.336;2023-10-08T14:57:56;1.93;;;0.90;;
16593;SDS011;8410;52.532;13.336;2023-10-08T15:00:24;3.03;;;1.20;;
16593;SDS011;8410;52.532;13.336;2023-10-08T15:02:52;1.00;;;0.80;;
16593;SDS011;8410;52.532;13.336;2023-10-08T15:05:22;3.10;;;1.30;;
16593;SDS011;8410;52.532;13.336;2023-10-08T15:07:50;1.33;;;0.90;;
16593;SDS011;8410;52.532;13.336;2023-10-08T15:10:18;1.00;;;0.80;;
16593;SDS011;8410;52.532;13.336;2023-10-08T15:12:48;1.30;;;0.80;;
16593;SDS011;8410;52.532;13.336;2023-10-08T15:15:18;1.83;;;1.17;;
16593;SDS011;8410;52.532;13.336;2023-10-08T15:17:46;2.20;;;1.60;;